Albert J Ellis Airport
KOAJ : rendu visible

Aérodrome :











RETROUVEZ-NOUS SUR...

 
LOGIN :

S'inscrire | Disclaimer

   EN    FR    IT 

 









Légende :    VFR   VFR Marginal   IFR   IFR Intensif   IFR Très Intensif
Visi : 
Plafond : 
>= 8 km
>= 3000ft
5 à 8 km
1000 à 3000 ft
1500m à 5 km
500 à 1000 ft
800 à 1500m
200 à 500 ft
< 800m
< 200 ft
Symboles :   Orages  Brouillard  Fortes neiges  Fortes précipitations  Vent > 20 kt






- Altitude de l'aérodrome : 94 ft


KOAJ - Albert J Ellis

DERNIER METAR :
  • 210256Z AUTO 02003KT 10SM CLR M03/M07 A3038 RMK AO2 SLP292 T10281072 51009 FZRANO

METARs EXPIRÉS :
  • 210156Z 01003KT 10SM CLR M03/M07 A3038 RMK AO2 SLP291 T10281067
  • 210056Z 00000KT 10SM CLR M02/M07 A3037 RMK AO2 SLP288 T10171067

TAF KOAJ
Valide du 21 à 00h jusqu'au 22 à 00h UTC


202320Z 2100/2124 01009KT P6SM SKC
FM211200 01008G13KT P6SM FEW250
FM211600 01012G20KT P6SM FEW250 AMD LTD TO CLD VIS AND WIND



MET'MAP, la Météo Aéronautique d'un coup d'oeil ! - Copyright ORBIFLY Décembre 2007 - Disclaimer

ORBIFLY MET'MAP TEAM :

Programmation & Développement : Alexandra Zaïnal
Sur une idée originale de : Baudouin d'Aumeries
Assistance à la programmation : Marc-Olivier Méhu
Soutien technique & logistique : Manuel Goepfert

Contact : metmap@orbifly.com




SOURCES & CREDITS :

   NOAA       Earth
Advisory